Time;durP1;ratioP1;P1;durP2;ratioP2;P2;SDS_P1;SDS_P2;PMS_P1;PMS_P2;Temp;Humidity;BMP_temperature;BMP_pressure;BME280_temperature;BME280_humidity;BME280_pressure;Samples;Min_cycle;Max_cycle;Signal;HPM_P1;HPM_P2
2022/11/04 00:01:16;;;;;;;;;;;;;;;13.52;60.75;94447.25;5088438;28;20480;-65
2022/11/04 00:03:41;;;;;;;;;;;;;;;13.39;61.14;94443.84;5088844;28;20009;-65
2022/11/04 00:06:07;;;;;;;;;;;;;;;13.47;60.48;94450.94;5089801;28;20013;-65
2022/11/04 00:08:32;;;;;;;;;;;;;;;13.47;60.38;94472.31;5089816;28;20086;-64
2022/11/04 00:13:42;;;;;;;;;;;;;;;13.93;58.86;94470.16;5090070;28;20150;-66
2022/11/04 00:18:51;;;;;;;;;;;;;;;13.34;61.13;94484.13;5089925;28;20019;-66
2022/11/04 00:29:28;;;;;;;;;;;;;;;13.60;60.56;94502.44;5089556;28;20457;-65
2022/11/04 00:34:37;;;;;;;;;;;;;;;13.53;61.15;94494.22;5088459;28;20055;-63
2022/11/04 00:37:02;;;;;;;;;;;;;;;13.43;60.73;94508.84;5089752;28;20036;-65
2022/11/04 00:39:28;;;;;;;;;;;;;;;13.06;62.03;94517.97;5089548;28;20477;-65
2022/11/04 00:41:53;;;;;;;;;;;;;;;12.97;62.54;94518.84;5088867;28;20013;-65
2022/11/04 00:44:19;;;;;;;;;;;;;;;13.69;60.43;94511.09;5087134;28;20087;-65
2022/11/04 00:46:44;;;;;;;;;;;;;;;13.51;60.54;94515.94;5086998;28;20115;-66
2022/11/04 00:49:09;;;;;;;;;;;;;;;13.29;61.17;94523.66;5090275;28;20354;-66
2022/11/04 00:51:34;;;;;;;;;;;;;;;12.91;62.18;94528.19;5080107;28;20040;-65
2022/11/04 00:54:00;;;;;;;;;;;;;;;13.23;61.46;94523.09;5088543;28;20066;-65
2022/11/04 00:56:25;;;;;;;;;;;;;;;12.41;64.03;94526.56;5088676;28;20397;-66
2022/11/04 00:58:50;;;;;;;;;;;;;;;12.66;64.09;94523.94;5087947;28;20096;-66
2022/11/04 01:01:16;;;;;;;;;;;;;;;12.57;64.82;94531.25;5086690;28;20009;-64
2022/11/04 01:03:41;;;;;;;;;;;;;;;12.47;65.68;94537.78;5090434;28;20385;-64
2022/11/04 01:06:07;;;;;;;;;;;;;;;12.12;67.24;94545.34;5084177;28;20606;-65
2022/11/04 01:08:32;;;;;;;;;;;;;;;12.10;67.56;94539.56;5068159;28;20106;-65
2022/11/04 01:11:04;;;;;;;;;;;;;;;12.04;68.07;94551.56;5086597;28;20012;-65
2022/11/04 01:13:29;;;;;;;;;;;;;;;12.14;67.99;94545.81;5088497;28;20058;-65
2022/11/04 01:15:58;;;;;;;;;;;;;;;12.19;68.43;94553.63;5088419;28;20477;-64
2022/11/04 01:18:23;;;;;;;;;;;;;;;12.04;68.88;94562.22;5088451;28;20016;-65
2022/11/04 01:20:49;;;;;;;;;;;;;;;12.07;69.09;94557.00;5086962;28;20669;-65
2022/11/04 01:23:14;;;;;;;;;;;;;;;11.88;69.77;94570.81;5088470;28;20107;-65
2022/11/04 01:25:40;;;;;;;;;;;;;;;11.80;69.57;94560.94;5087202;28;20491;-66
2022/11/04 01:28:06;;;;;;;;;;;;;;;12.12;68.94;94554.13;5088421;28;20013;-65
2022/11/04 01:30:31;;;;;;;;;;;;;;;12.30;68.34;94553.97;5086694;28;20011;-65
2022/11/04 01:32:56;;;;;;;;;;;;;;;12.31;67.23;94542.97;5088967;28;20052;-65
2022/11/04 01:35:21;;;;;;;;;;;;;;;12.44;67.25;94551.81;5086626;28;20013;-64
2022/11/04 01:37:46;;;;;;;;;;;;;;;12.33;67.54;94551.41;5089632;28;20009;-66
2022/11/04 01:40:11;;;;;;;;;;;;;;;12.79;66.35;94532.72;5087789;28;20550;-66
2022/11/04 01:42:37;;;;;;;;;;;;;;;12.34;66.76;94549.56;5089797;28;20004;-66
2022/11/04 01:45:02;;;;;;;;;;;;;;;11.88;68.31;94538.06;5087596;28;20005;-65
2022/11/04 01:47:27;;;;;;;;;;;;;;;12.80;66.08;94529.75;5088795;28;20081;-66
2022/11/04 01:49:55;;;;;;;;;;;;;;;13.06;64.82;94512.63;5090673;28;20013;-65
2022/11/04 01:52:26;;;;;;;;;;;;;;;13.07;63.82;94509.63;5091585;28;20465;-66
2022/11/04 01:54:54;;;;;;;;;;;;;;;12.71;65.21;94510.38;5092328;28;20020;-65
2022/11/04 01:57:23;;;;;;;;;;;;;;;12.76;64.78;94504.84;5092917;28;20377;-66
2022/11/04 01:59:49;;;;;;;;;;;;;;;13.01;63.86;94498.38;5093543;28;20118;-65
2022/11/04 02:02:14;;;;;;;;;;;;;;;13.23;62.81;94491.06;5091148;28;20536;-66
2022/11/04 02:04:40;;;;;;;;;;;;;;;12.91;62.73;94495.38;5091546;28;20111;-65
2022/11/04 02:07:07;;;;;;;;;;;;;;;13.30;62.14;94487.81;5090773;28;20009;-65
2022/11/04 02:09:33;;;;;;;;;;;;;;;13.53;61.29;94484.31;5092277;28;20013;-65
2022/11/04 02:14:43;;;;;;;;;;;;;;;13.79;60.16;94477.78;5092250;28;20545;-65
2022/11/04 02:17:17;;;;;;;;;;;;;;;13.88;60.04;94491.00;5089960;28;20009;-65
2022/11/04 02:20:04;;;;;;;;;;;;;;;13.87;58.97;94484.91;5090688;28;20073;-65
2022/11/04 02:22:29;;;;;;;;;;;;;;;13.51;59.47;94489.22;5091590;28;20008;-65
2022/11/04 02:25:03;;;;;;;;;;;;;;;12.88;60.92;94499.50;5091229;28;20020;-65
2022/11/04 02:27:32;;;;;;;;;;;;;;;13.44;59.73;94496.25;5089828;28;20468;-65
2022/11/04 02:30:09;;;;;;;;;;;;;;;13.24;59.90;94505.97;5092237;28;20109;-65
2022/11/04 02:32:41;;;;;;;;;;;;;;;13.04;60.07;94512.16;5091265;28;20412;-65
2022/11/04 02:35:15;;;;;;;;;;;;;;;12.62;61.32;94512.38;5091087;28;20017;-65
2022/11/04 02:37:59;;;;;;;;;;;;;;;12.68;61.32;94522.50;5091975;28;20523;-65
2022/11/04 02:40:30;;;;;;;;;;;;;;;12.74;61.18;94515.84;5091462;28;20009;-66
2022/11/04 02:43:08;;;;;;;;;;;;;;;12.80;61.16;94527.09;5092585;28;20012;-66
2022/11/04 02:45:39;;;;;;;;;;;;;;;12.64;61.69;94526.16;5089986;28;20107;-65
2022/11/04 02:48:27;;;;;;;;;;;;;;;13.07;61.14;94524.88;5091416;28;20020;-65
2022/11/04 02:50:52;;;;;;;;;;;;;;;13.12;60.82;94520.06;5088902;28;20082;-65
2022/11/04 02:53:38;;;;;;;;;;;;;;;13.06;60.51;94512.63;5092490;28;20508;-65
2022/11/04 02:56:04;;;;;;;;;;;;;;;13.14;60.16;94507.16;5071178;28;20040;-65
2022/11/04 02:58:33;;;;;;;;;;;;;;;12.65;61.71;94517.84;5078459;28;20005;-65
2022/11/04 03:01:00;;;;;;;;;;;;;;;12.43;61.58;94507.56;5077685;28;20020;-65
2022/11/04 03:03:27;;;;;;;;;;;;;;;12.57;61.40;94507.25;5092142;28;20001;-65
2022/11/04 03:05:54;;;;;;;;;;;;;;;12.20;61.91;94507.19;5089758;28;20012;-65
2022/11/04 03:08:28;;;;;;;;;;;;;;;11.78;62.54;94499.22;5088995;28;20066;-66
2022/11/04 03:10:57;;;;;;;;;;;;;;;12.45;61.00;94502.69;5091933;28;20469;-65
2022/11/04 03:13:31;;;;;;;;;;;;;;;12.09;61.13;94503.38;5091135;28;20020;-65
2022/11/04 03:15:58;;;;;;;;;;;;;;;12.11;61.83;94501.16;5090258;28;20013;-65
2022/11/04 03:18:41;;;;;;;;;;;;;;;12.49;60.66;94499.03;5089537;28;20021;-65
2022/11/04 03:21:07;;;;;;;;;;;;;;;12.65;59.96;94499.16;5088647;28;20024;-63
2022/11/04 03:23:33;;;;;;;;;;;;;;;13.16;58.96;94504.94;5091920;28;20005;-64
2022/11/04 03:26:05;;;;;;;;;;;;;;;12.94;58.85;94510.72;5089049;28;20013;-65
2022/11/04 03:28:37;;;;;;;;;;;;;;;13.38;58.21;94511.72;5090074;28;20021;-65
2022/11/04 03:31:03;;;;;;;;;;;;;;;13.25;57.54;94513.63;5089730;28;20056;-65
2022/11/04 03:33:28;;;;;;;;;;;;;;;13.23;57.76;94510.53;5090192;28;20606;-65
2022/11/04 03:35:54;;;;;;;;;;;;;;;12.98;58.15;94503.59;5088914;28;20107;-64
2022/11/04 03:38:20;;;;;;;;;;;;;;;13.29;57.45;94507.63;5088610;28;20016;-64
2022/11/04 03:40:45;;;;;;;;;;;;;;;13.49;57.15;94502.13;5089206;28;20019;-65
2022/11/04 03:43:13;;;;;;;;;;;;;;;13.62;56.57;94507.47;5091550;28;20005;-65
2022/11/04 03:45:40;;;;;;;;;;;;;;;13.59;56.27;94500.13;5088665;28;20013;-65
2022/11/04 03:48:05;;;;;;;;;;;;;;;13.33;56.97;94509.28;5090035;28;20009;-65
2022/11/04 03:50:32;;;;;;;;;;;;;;;13.21;56.80;94510.09;5089591;28;20009;-65
2022/11/04 03:52:58;;;;;;;;;;;;;;;13.39;56.58;94513.28;5088703;28;20114;-65
2022/11/04 03:55:41;;;;;;;;;;;;;;;13.50;56.39;94511.69;5090880;28;20004;-65
2022/11/04 03:58:11;;;;;;;;;;;;;;;13.74;56.45;94502.84;5090251;28;20017;-64
2022/11/04 04:00:46;;;;;;;;;;;;;;;13.85;56.10;94487.13;5088914;28;20104;-64
2022/11/04 04:03:17;;;;;;;;;;;;;;;13.58;55.71;94488.66;5091206;28;20004;-65
2022/11/04 04:06:01;;;;;;;;;;;;;;;13.53;55.73;94488.88;5089597;28;20013;-64
2022/11/04 04:08:29;;;;;;;;;;;;;;;13.66;55.39;94476.25;5090643;28;20445;-65
2022/11/04 04:11:00;;;;;;;;;;;;;;;13.63;55.37;94477.72;5088874;28;20049;-65
2022/11/04 04:13:43;;;;;;;;;;;;;;;13.43;55.90;94470.66;5089510;28;20044;-65
2022/11/04 04:16:26;;;;;;;;;;;;;;;13.69;55.11;94478.25;5089352;28;20013;-65
2022/11/04 04:18:58;;;;;;;;;;;;;;;13.65;55.40;94480.06;5088426;28;20016;-65
2022/11/04 04:21:27;;;;;;;;;;;;;;;13.82;54.60;94478.97;5088912;28;20031;-65
2022/11/04 04:29:25;;;;;;;;;;;;;;;13.83;54.25;94494.69;5090574;28;20020;-65
2022/11/04 04:31:56;;;;;;;;;;;;;;;13.86;54.58;94488.66;5088275;28;20346;-65
2022/11/04 04:34:28;;;;;;;;;;;;;;;14.01;54.18;94487.94;5079388;28;20017;-66
2022/11/04 04:37:12;;;;;;;;;;;;;;;13.98;53.74;94485.97;5084192;28;20016;-65
2022/11/04 04:45:09;;;;;;;;;;;;;;;13.59;54.73;94490.19;5089279;28;20054;-66
2022/11/04 04:47:34;;;;;;;;;;;;;;;13.66;54.64;94502.97;5089210;28;20040;-66
2022/11/04 04:50:00;;;;;;;;;;;;;;;13.61;54.78;94498.66;5090543;28;20005;-65
2022/11/04 04:52:28;;;;;;;;;;;;;;;13.89;53.98;94508.59;5087378;28;20009;-66
2022/11/04 04:54:53;;;;;;;;;;;;;;;13.59;53.72;94500.13;5088671;28;20491;-66
2022/11/04 04:57:18;;;;;;;;;;;;;;;13.48;54.38;94505.16;5088111;28;20020;-65
2022/11/04 04:59:43;;;;;;;;;;;;;;;13.39;54.47;94507.94;5089334;28;20030;-66
2022/11/04 05:02:08;;;;;;;;;;;;;;;13.65;54.03;94507.56;5088467;28;20667;-65
2022/11/04 05:04:34;;;;;;;;;;;;;;;13.17;54.83;94513.72;5090073;28;20406;-65
2022/11/04 05:06:59;;;;;;;;;;;;;;;13.13;54.84;94504.84;5084272;28;20487;-65
2022/11/04 05:09:24;;;;;;;;;;;;;;;13.36;54.38;94505.16;5070503;28;20097;-65
2022/11/04 05:11:49;;;;;;;;;;;;;;;13.20;54.77;94515.72;5084191;28;20013;-64
2022/11/04 05:14:14;;;;;;;;;;;;;;;12.73;55.70;94521.50;5090068;28;20005;-66
2022/11/04 05:16:40;;;;;;;;;;;;;;;12.93;56.08;94525.97;5086116;28;20013;-66
2022/11/04 05:19:05;;;;;;;;;;;;;;;13.34;55.11;94516.19;5088197;28;20029;-66
2022/11/04 05:21:30;;;;;;;;;;;;;;;13.60;54.82;94499.00;5088172;28;20013;-66
2022/11/04 05:23:55;;;;;;;;;;;;;;;12.87;55.82;94497.94;5072995;28;20056;-66
2022/11/04 05:26:20;;;;;;;;;;;;;;;12.55;56.14;94501.47;5096911;28;20014;-66
2022/11/04 05:28:46;;;;;;;;;;;;;;;12.63;57.00;94500.59;5073534;28;20028;-65
2022/11/04 05:31:11;;;;;;;;;;;;;;;12.38;56.87;94508.53;5082814;28;20020;-66
2022/11/04 05:33:37;;;;;;;;;;;;;;;11.63;59.17;94491.81;5093782;28;20070;-66
2022/11/04 05:36:09;;;;;;;;;;;;;;;11.69;59.05;94498.50;5091815;28;20020;-65
2022/11/04 05:38:35;;;;;;;;;;;;;;;11.66;59.38;94512.47;5093726;28;20012;-66
2022/11/04 05:41:00;;;;;;;;;;;;;;;11.78;58.91;94515.22;5092047;28;20013;-65
2022/11/04 05:43:25;;;;;;;;;;;;;;;11.07;61.81;94516.00;5093730;28;20016;-66
2022/11/04 05:45:51;;;;;;;;;;;;;;;11.18;61.34;94521.72;5091120;28;20112;-65
2022/11/04 05:48:16;;;;;;;;;;;;;;;11.16;60.88;94521.28;5074225;28;20070;-67
2022/11/04 05:50:41;;;;;;;;;;;;;;;11.22;60.93;94522.66;5092293;28;20020;-65
2022/11/04 05:53:06;;;;;;;;;;;;;;;11.19;60.82;94523.28;5091333;28;20040;-65
2022/11/04 05:55:31;;;;;;;;;;;;;;;10.87;62.58;94516.72;5087337;28;20005;-65
2022/11/04 05:57:58;;;;;;;;;;;;;;;10.75;63.62;94521.94;5075490;28;20024;-67
2022/11/04 06:00:23;;;;;;;;;;;;;;;10.85;64.97;94519.72;5090234;28;20016;-66
2022/11/04 06:02:48;;;;;;;;;;;;;;;10.74;66.11;94518.50;5079637;28;20010;-67
2022/11/04 06:05:14;;;;;;;;;;;;;;;10.05;68.15;94534.63;5087558;28;20009;-66
2022/11/04 06:07:39;;;;;;;;;;;;;;;10.38;68.95;94535.66;5089952;28;20020;-67
2022/11/04 06:10:05;;;;;;;;;;;;;;;9.86;70.34;94525.09;5086305;28;20013;-66
2022/11/04 06:12:30;;;;;;;;;;;;;;;10.17;70.85;94521.47;5080826;28;20009;-67
2022/11/04 06:14:55;;;;;;;;;;;;;;;10.68;69.54;94531.19;5091883;28;20094;-67
2022/11/04 06:17:21;;;;;;;;;;;;;;;11.14;68.51;94532.22;5076009;28;20017;-67
2022/11/04 06:19:46;;;;;;;;;;;;;;;11.23;68.76;94534.84;5073053;28;20040;-67
2022/11/04 06:22:13;;;;;;;;;;;;;;;11.51;69.12;94521.03;5089485;28;20416;-68
2022/11/04 06:24:38;;;;;;;;;;;;;;;11.77;70.93;94520.84;5087554;28;20020;-67
2022/11/04 06:27:03;;;;;;;;;;;;;;;11.69;68.30;94520.59;5091752;28;20012;-65
2022/11/04 06:29:29;;;;;;;;;;;;;;;11.99;69.40;94515.22;5086492;28;20016;-66
2022/11/04 06:31:54;;;;;;;;;;;;;;;11.44;67.85;94522.34;5088709;28;20019;-67
2022/11/04 06:34:19;;;;;;;;;;;;;;;10.91;70.18;94533.63;5086455;28;20538;-67
2022/11/04 06:36:44;;;;;;;;;;;;;;;10.91;71.79;94534.41;5085540;28;20015;-66
2022/11/04 06:39:10;;;;;;;;;;;;;;;10.82;69.15;94546.19;5082872;28;20020;-66
2022/11/04 06:41:35;;;;;;;;;;;;;;;10.64;69.30;94551.53;5093075;28;20012;-65
2022/11/04 06:44:00;;;;;;;;;;;;;;;10.04;73.28;94549.00;5090545;28;20066;-66
2022/11/04 06:46:32;;;;;;;;;;;;;;;10.47;73.16;94556.13;5091385;28;20013;-66
2022/11/04 06:48:57;;;;;;;;;;;;;;;10.61;73.85;94565.50;5087972;28;20064;-66
2022/11/04 06:51:23;;;;;;;;;;;;;;;10.74;71.87;94561.06;5089777;28;20009;-66
2022/11/04 06:53:49;;;;;;;;;;;;;;;9.95;75.25;94559.63;5090397;28;20012;-66
2022/11/04 06:56:14;;;;;;;;;;;;;;;10.01;75.62;94546.97;5092371;28;20031;-67
2022/11/04 06:58:39;;;;;;;;;;;;;;;10.04;76.38;94535.72;5091099;28;20012;-67
2022/11/04 07:01:04;;;;;;;;;;;;;;;10.18;76.49;94536.31;5090993;28;20009;-67
2022/11/04 07:03:30;;;;;;;;;;;;;;;10.05;76.21;94540.72;5088593;28;20017;-67
2022/11/04 07:05:55;;;;;;;;;;;;;;;9.78;77.21;94536.53;5090096;28;20016;-66
2022/11/04 07:08:20;;;;;;;;;;;;;;;9.64;77.77;94538.53;5088806;28;20412;-66
2022/11/04 07:10:45;;;;;;;;;;;;;;;9.68;78.43;94531.53;5080700;28;20032;-66
2022/11/04 07:13:11;;;;;;;;;;;;;;;9.64;78.22;94541.97;5091409;28;20397;-66
2022/11/04 07:15:39;;;;;;;;;;;;;;;9.32;79.65;94561.00;5089223;28;20024;-66
2022/11/04 07:18:05;;;;;;;;;;;;;;;9.53;78.95;94553.22;5089904;28;20103;-66
2022/11/04 07:20:31;;;;;;;;;;;;;;;9.52;79.07;94560.41;5089557;28;20063;-66
2022/11/04 07:22:56;;;;;;;;;;;;;;;10.04;77.79;94565.72;5090887;28;20048;-66
2022/11/04 07:25:22;;;;;;;;;;;;;;;9.55;78.49;94569.59;5082236;28;20006;-65
2022/11/04 07:27:47;;;;;;;;;;;;;;;9.64;77.49;94573.06;5085781;28;20018;-66
2022/11/04 07:30:13;;;;;;;;;;;;;;;9.74;78.03;94586.03;5087619;28;20378;-66
2022/11/04 07:32:38;;;;;;;;;;;;;;;10.37;76.30;94587.28;5090743;28;20005;-64
2022/11/04 07:35:03;;;;;;;;;;;;;;;10.43;76.65;94603.06;5089228;28;20044;-65
2022/11/04 07:37:28;;;;;;;;;;;;;;;10.97;76.58;94598.84;5084469;28;20004;-67
2022/11/04 07:39:54;;;;;;;;;;;;;;;11.11;74.89;94596.00;5088765;28;20052;-67
2022/11/04 07:42:19;;;;;;;;;;;;;;;11.06;73.70;94580.97;5088362;28;20053;-65
2022/11/04 07:44:45;;;;;;;;;;;;;;;11.19;74.98;94587.94;5090308;28;20013;-66
2022/11/04 07:47:11;;;;;;;;;;;;;;;11.52;74.41;94578.56;5088987;28;20017;-65
2022/11/04 07:49:36;;;;;;;;;;;;;;;11.64;75.50;94583.94;5088635;28;20017;-67
2022/11/04 07:52:01;;;;;;;;;;;;;;;11.85;74.92;94584.00;5088293;28;20473;-64
2022/11/04 07:54:26;;;;;;;;;;;;;;;12.05;75.15;94607.19;5088769;28;20075;-71
2022/11/04 07:56:51;;;;;;;;;;;;;;;12.19;74.87;94620.28;5087280;28;20013;-65
2022/11/04 07:59:17;;;;;;;;;;;;;;;12.28;75.03;94615.63;5088253;28;20417;-64
2022/11/04 08:01:42;;;;;;;;;;;;;;;12.32;74.30;94605.88;5084828;28;20020;-67
2022/11/04 08:04:07;;;;;;;;;;;;;;;12.30;74.10;94602.75;5079234;28;20013;-69
2022/11/04 08:06:33;;;;;;;;;;;;;;;12.30;74.09;94602.75;5085066;28;20013;-66
2022/11/04 08:08:58;;;;;;;;;;;;;;;12.32;74.64;94594.44;5084405;28;20017;-66
2022/11/04 08:11:24;;;;;;;;;;;;;;;11.74;72.59;94575.56;5086723;28;20009;-67
2022/11/04 08:13:49;;;;;;;;;;;;;;;11.50;70.48;94588.72;5087286;28;20020;-68
2022/11/04 08:16:18;;;;;;;;;;;;;;;11.51;70.99;94582.28;5086822;28;20013;-67
2022/11/04 08:18:44;;;;;;;;;;;;;;;11.05;71.70;94573.28;5090246;28;20066;-68
2022/11/04 08:21:09;;;;;;;;;;;;;;;10.37;73.78;94579.28;5082195;28;20013;-67
2022/11/04 08:23:35;;;;;;;;;;;;;;;10.34;72.76;94577.28;5089081;28;20013;-65
2022/11/04 08:26:00;;;;;;;;;;;;;;;10.00;74.84;94564.78;5083321;28;20031;-65
2022/11/04 08:28:26;;;;;;;;;;;;;;;9.92;74.59;94559.47;5087157;28;20009;-66
2022/11/04 08:31:01;;;;;;;;;;;;;;;9.95;73.63;94564.16;5087628;28;20111;-65
2022/11/04 08:33:26;;;;;;;;;;;;;;;10.22;74.95;94563.81;5087324;28;20012;-66
2022/11/04 08:35:53;;;;;;;;;;;;;;;9.88;74.08;94552.13;5085745;28;20055;-66
2022/11/04 08:38:18;;;;;;;;;;;;;;;9.94;75.43;94560.72;5083687;28;20013;-65
2022/11/04 08:40:43;;;;;;;;;;;;;;;10.49;75.73;94556.59;5088415;28;20016;-65
2022/11/04 08:43:08;;;;;;;;;;;;;;;10.33;75.71;94565.06;5087122;28;20096;-66
2022/11/04 08:45:38;;;;;;;;;;;;;;;10.24;75.73;94566.22;5088069;28;20009;-65
2022/11/04 08:48:03;;;;;;;;;;;;;;;10.20;75.45;94560.69;5088234;28;20048;-65
2022/11/04 08:50:29;;;;;;;;;;;;;;;10.56;76.13;94539.06;5087629;28;20056;-65
2022/11/04 08:52:54;;;;;;;;;;;;;;;10.42;75.20;94533.16;5090264;28;20008;-66
2022/11/04 08:55:19;;;;;;;;;;;;;;;10.48;74.97;94523.91;5089698;28;20356;-65
2022/11/04 08:57:44;;;;;;;;;;;;;;;11.06;73.69;94526.97;5088389;28;20091;-65
2022/11/04 09:00:10;;;;;;;;;;;;;;;11.63;75.66;94521.13;5088220;28;20013;-66
2022/11/04 09:02:35;;;;;;;;;;;;;;;12.12;75.61;94532.03;5088542;28;20370;-66
2022/11/04 09:05:00;;;;;;;;;;;;;;;12.40;75.05;94538.34;5089307;28;20055;-66
2022/11/04 09:07:26;;;;;;;;;;;;;;;12.61;75.09;94532.16;5090059;28;20148;-66
2022/11/04 09:09:51;;;;;;;;;;;;;;;12.78;74.77;94518.63;5089019;28;20009;-66
2022/11/04 09:12:16;;;;;;;;;;;;;;;12.98;74.93;94514.28;5088577;28;20023;-66
2022/11/04 09:14:41;;;;;;;;;;;;;;;13.11;74.68;94512.41;5089779;28;20094;-65
2022/11/04 09:17:06;;;;;;;;;;;;;;;13.13;73.69;94510.16;5088148;28;20442;-65
2022/11/04 09:19:32;;;;;;;;;;;;;;;13.10;73.28;94508.94;5088601;28;20027;-65
2022/11/04 09:21:57;;;;;;;;;;;;;;;13.04;73.32;94512.16;5089794;28;20016;-65
2022/11/04 09:24:22;;;;;;;;;;;;;;;13.01;73.20;94513.63;5089767;28;20028;-66
2022/11/04 09:26:47;;;;;;;;;;;;;;;13.01;73.69;94516.31;5087940;28;20665;-66
2022/11/04 09:29:12;;;;;;;;;;;;;;;12.83;71.39;94514.94;5088727;28;20135;-65
2022/11/04 09:31:38;;;;;;;;;;;;;;;12.56;72.62;94511.03;5089116;28;20053;-65
2022/11/04 09:34:03;;;;;;;;;;;;;;;12.28;71.81;94516.19;5089818;28;20107;-66
2022/11/04 09:36:28;;;;;;;;;;;;;;;11.99;71.37;94517.09;5089258;28;20012;-66
2022/11/04 09:38:54;;;;;;;;;;;;;;;11.65;71.61;94516.25;5089887;28;20009;-65
2022/11/04 09:41:19;;;;;;;;;;;;;;;10.72;72.79;94525.25;5087711;28;20016;-65
2022/11/04 09:44:16;;;;;;;;;;;;;;;10.76;74.17;94542.13;5089714;28;20506;-66
2022/11/04 09:46:43;;;;;;;;;;;;;;;11.13;74.55;94551.19;5064762;28;20005;-65
2022/11/04 09:49:10;;;;;;;;;;;;;;;11.36;74.73;94539.19;5100532;22;20070;-70
2022/11/04 09:51:37;;;;;;;;;;;;;;;11.36;74.94;94539.19;5049586;28;20018;-70
2022/11/04 09:54:07;;;;;;;;;;;;;;;11.22;73.22;94541.28;5048693;28;20086;-70
2022/11/04 09:56:37;;;;;;;;;;;;;;;10.57;74.29;94537.97;5049091;28;20028;-69
2022/11/04 09:59:03;;;;;;;;;;;;;;;11.01;74.51;94535.16;5049295;28;20734;-70
2022/11/04 10:01:37;;;;;;;;;;;;;;;10.93;73.75;94536.72;5048024;28;20010;-70
2022/11/04 10:04:11;;;;;;;;;;;;;;;11.25;72.56;94524.66;5047977;28;20009;-71
2022/11/04 10:06:44;;;;;;;;;;;;;;;10.68;72.59;94511.78;5047481;28;20470;-71
2022/11/04 10:09:09;;;;;;;;;;;;;;;11.27;73.95;94509.16;5049266;28;20020;-70
2022/11/04 10:12:14;;;;;;;;;;;;;;;11.57;72.00;94506.44;5053054;28;20436;-71
2022/11/04 10:14:58;;;;;;;;;;;;;;;12.15;73.97;94499.38;5009372;28;20028;-71
2022/11/04 10:17:39;;;;;;;;;;;;;;;12.47;74.15;94495.13;5010025;28;20018;-69
2022/11/04 10:20:11;;;;;;;;;;;;;;;12.71;74.12;94500.50;5049950;28;20013;-69
2022/11/04 10:22:57;;;;;;;;;;;;;;;12.89;74.40;94505.59;5051351;28;20837;-70
2022/11/04 10:25:27;;;;;;;;;;;;;;;13.06;74.05;94500.06;5066476;28;20112;-71
2022/11/04 10:27:52;;;;;;;;;;;;;;;13.21;74.30;94493.25;5052807;28;20013;-70
2022/11/04 10:30:21;;;;;;;;;;;;;;;13.38;74.37;94494.94;5052523;28;20474;-70
2022/11/04 10:32:50;;;;;;;;;;;;;;;13.49;74.49;94499.47;5052371;28;20006;-70
2022/11/04 10:35:27;;;;;;;;;;;;;;;13.61;74.08;94484.50;5050457;28;20014;-70
2022/11/04 10:37:53;;;;;;;;;;;;;;;12.75;64.55;94481.94;5050690;28;20067;-70
2022/11/04 10:40:27;;;;;;;;;;;;;;;12.79;69.87;94464.13;5052408;28;20006;-70
2022/11/04 10:42:54;;;;;;;;;;;;;;;12.43;69.01;94460.31;5052490;28;20005;-71
2022/11/04 10:45:22;;;;;;;;;;;;;;;11.99;67.87;94469.13;5050312;28;20017;-70
2022/11/04 10:48:10;;;;;;;;;;;;;;;12.11;68.51;94466.50;5052152;28;20005;-70
2022/11/04 10:50:49;;;;;;;;;;;;;;;12.52;69.84;94462.13;5043593;28;20018;-70
2022/11/04 10:53:19;;;;;;;;;;;;;;;12.63;69.41;94477.34;5052386;28;20473;-70
2022/11/04 10:55:44;;;;;;;;;;;;;;;12.60;70.60;94466.59;5051566;28;20053;-69
2022/11/04 10:58:15;;;;;;;;;;;;;;;12.71;70.58;94465.81;5051932;28;20052;-70
2022/11/04 11:00:41;;;;;;;;;;;;;;;12.66;69.47;94473.25;5051599;28;20048;-70
2022/11/04 11:03:26;;;;;;;;;;;;;;;12.55;68.63;94466.81;5052121;28;20565;-69
2022/11/04 11:05:52;;;;;;;;;;;;;;;12.38;69.24;94470.44;5066320;28;20010;-70
2022/11/04 11:08:26;;;;;;;;;;;;;;;12.56;71.59;94479.03;5051500;28;20055;-70
2022/11/04 11:10:51;;;;;;;;;;;;;;;12.95;72.56;94477.59;5051811;28;20012;-69
2022/11/04 11:13:26;;;;;;;;;;;;;;;13.15;72.10;94483.91;5051211;28;20014;-70
2022/11/04 11:16:03;;;;;;;;;;;;;;;13.39;72.42;94475.88;5051063;28;20116;-70
2022/11/04 11:18:28;;;;;;;;;;;;;;;13.24;70.35;94479.25;5050470;28;20508;-69
2022/11/04 11:21:06;;;;;;;;;;;;;;;13.23;70.00;94477.69;5049132;28;20041;-70
2022/11/04 11:23:40;;;;;;;;;;;;;;;13.37;71.68;94482.69;5051410;28;20005;-70
2022/11/04 11:26:15;;;;;;;;;;;;;;;13.49;72.29;94483.44;5051200;28;20016;-70
2022/11/04 11:28:47;;;;;;;;;;;;;;;13.60;72.49;94481.06;5050094;28;20064;-69
2022/11/04 11:31:22;;;;;;;;;;;;;;;13.64;72.67;94489.97;5051822;28;20005;-71
2022/11/04 11:33:49;;;;;;;;;;;;;;;13.68;72.52;94498.09;5051370;28;20416;-71
2022/11/04 11:36:16;;;;;;;;;;;;;;;13.70;72.78;94503.88;5051091;28;20006;-72
2022/11/04 11:39:05;;;;;;;;;;;;;;;13.64;72.69;94497.22;5049299;28;20128;-70
2022/11/04 11:41:32;;;;;;;;;;;;;;;13.63;72.55;94499.09;5060913;28;20354;-70
2022/11/04 11:44:03;;;;;;;;;;;;;;;13.63;72.70;94495.66;5051201;28;20005;-70
2022/11/04 11:46:30;;;;;;;;;;;;;;;13.64;72.91;94508.69;5050534;28;20409;-71
2022/11/04 11:48:59;;;;;;;;;;;;;;;13.68;72.82;94503.44;5051146;28;20013;-69
2022/11/04 11:51:35;;;;;;;;;;;;;;;13.70;72.70;94503.88;5049738;28;20355;-70
2022/11/04 11:54:07;;;;;;;;;;;;;;;13.66;72.36;94500.31;5050728;28;20009;-69
2022/11/04 11:56:37;;;;;;;;;;;;;;;13.62;71.71;94505.56;5049179;28;20048;-70
2022/11/04 11:59:08;;;;;;;;;;;;;;;13.61;71.26;94497.88;5049195;28;20020;-70
2022/11/04 12:01:41;;;;;;;;;;;;;;;13.50;71.72;94495.66;5051138;28;20005;-70
2022/11/04 12:04:07;;;;;;;;;;;;;;;13.46;72.56;94504.69;5050690;28;20013;-70
2022/11/04 12:06:46;;;;;;;;;;;;;;;13.39;72.55;94501.81;5050365;28;20104;-69
2022/11/04 12:09:27;;;;;;;;;;;;;;;13.34;72.04;94505.50;5049272;28;20017;-69
2022/11/04 12:11:53;;;;;;;;;;;;;;;13.44;72.76;94498.91;5050262;28;20010;-71
2022/11/04 12:14:29;;;;;;;;;;;;;;;13.53;72.42;94499.56;5050629;28;20012;-69
2022/11/04 12:17:01;;;;;;;;;;;;;;;13.63;72.40;94496.44;5050322;28;20009;-70
2022/11/04 12:19:36;;;;;;;;;;;;;;;13.72;72.18;94494.41;5048696;28;20013;-70
2022/11/04 12:22:22;;;;;;;;;;;;;;;13.86;72.28;94496.69;5050410;28;20011;-70
2022/11/04 12:24:49;;;;;;;;;;;;;;;13.90;71.74;94494.13;5049615;28;20010;-70
2022/11/04 12:27:33;;;;;;;;;;;;;;;13.91;71.68;94475.06;5049156;28;20096;-70
2022/11/04 12:30:05;;;;;;;;;;;;;;;13.96;71.70;94477.47;5065424;28;20017;-71
2022/11/04 12:32:36;;;;;;;;;;;;;;;13.93;71.57;94466.72;5048531;28;20013;-70
2022/11/04 12:35:14;;;;;;;;;;;;;;;13.96;71.24;94445.41;5047942;28;20096;-70
2022/11/04 12:37:39;;;;;;;;;;;;;;;14.05;70.96;94459.41;5048187;28;20017;-71
2022/11/04 12:40:10;;;;;;;;;;;;;;;14.13;71.06;94468.41;5048021;28;20017;-70
2022/11/04 12:42:53;;;;;;;;;;;;;;;14.18;70.09;94476.19;5050191;28;20005;-71
2022/11/04 12:45:37;;;;;;;;;;;;;;;14.19;71.08;94487.66;5048480;28;20013;-71
2022/11/04 12:48:04;;;;;;;;;;;;;;;14.17;70.79;94501.34;5048757;28;20025;-70
2022/11/04 12:50:37;;;;;;;;;;;;;;;14.13;70.37;94519.22;5048529;28;20073;-71
2022/11/04 12:53:20;;;;;;;;;;;;;;;14.10;70.15;94525.22;5050058;28;20055;-70
2022/11/04 12:56:04;;;;;;;;;;;;;;;13.98;70.45;94539.44;5048458;28;20014;-70
2022/11/04 12:58:47;;;;;;;;;;;;;;;13.71;67.73;94540.16;5049636;28;20014;-71
2022/11/04 13:01:17;;;;;;;;;;;;;;;13.44;66.71;94533.66;5048774;28;20017;-70
2022/11/04 13:03:52;;;;;;;;;;;;;;;13.45;69.53;94530.63;5048754;28;20096;-70
2022/11/04 13:06:20;;;;;;;;;;;;;;;13.45;70.06;94519.94;5049151;28;20005;-70
2022/11/04 13:08:49;;;;;;;;;;;;;;;13.44;70.21;94517.63;5048912;28;20017;-70
2022/11/04 13:11:21;;;;;;;;;;;;;;;13.49;70.28;94526.19;5049855;28;20005;-70
2022/11/04 13:13:49;;;;;;;;;;;;;;;13.50;70.51;94527.72;5050006;28;20012;-70
2022/11/04 13:16:14;;;;;;;;;;;;;;;13.35;68.84;94544.44;5049726;28;20470;-69
2022/11/04 13:18:40;;;;;;;;;;;;;;;13.42;69.68;94544.69;5050103;28;20049;-70
2022/11/04 13:21:08;;;;;;;;;;;;;;;13.48;70.34;94546.00;5049452;28;20104;-71
2022/11/04 13:23:38;;;;;;;;;;;;;;;13.45;70.26;94545.88;5049752;28;20009;-70
2022/11/04 13:26:05;;;;;;;;;;;;;;;13.44;69.60;94537.09;5049574;28;20005;-70